Time;durP1;ratioP1;P1;durP2;ratioP2;P2;SDS_P1;SDS_P2;PMS_P1;PMS_P2;Temp;Humidity;BMP_temperature;BMP_pressure;BME280_temperature;BME280_humidity;BME280_pressure;Samples;Min_cycle;Max_cycle;Signal;HPM_P1;HPM_P2
2023/01/24 00:01:25;;;;;;;25.77;11.68;;;;;;;;;;6251094;23;20008;-95
2023/01/24 00:03:51;;;;;;;25.00;10.70;;;;;;;;;;6251131;23;20032;-95
2023/01/24 00:06:17;;;;;;;25.20;11.02;;;;;;;;;;6252890;23;20011;-96
2023/01/24 00:08:43;;;;;;;23.25;10.60;;;;;;;;;;6251536;23;20001;-95
2023/01/24 00:11:11;;;;;;;25.60;11.45;;;;;;;;;;6226506;23;20004;-96
2023/01/24 00:13:37;;;;;;;25.63;11.32;;;;;;;;;;6251056;23;20004;-95
2023/01/24 00:16:12;;;;;;;25.10;11.82;;;;;;;;;;6251330;23;20436;-96
2023/01/24 00:18:41;;;;;;;26.05;11.57;;;;;;;;;;6252264;23;20004;-96
2023/01/24 00:21:17;;;;;;;22.42;11.30;;;;;;;;;;6226191;23;20066;-95
2023/01/24 00:23:54;;;;;;;26.75;11.27;;;;;;;;;;6252434;22;20408;-95
2023/01/24 00:26:21;;;;;;;25.73;10.85;;;;;;;;;;6250033;23;20013;-95
2023/01/24 00:28:47;;;;;;;25.50;11.27;;;;;;;;;;6250852;23;20010;-96
2023/01/24 00:31:13;;;;;;;30.33;13.10;;;;;;;;;;6224866;23;20105;-95
2023/01/24 00:33:40;;;;;;;27.25;12.07;;;;;;;;;;6225578;23;20012;-96
2023/01/24 00:36:06;;;;;;;34.15;13.13;;;;;;;;;;6226241;23;20016;-95
2023/01/24 00:38:39;;;;;;;28.67;12.70;;;;;;;;;;6225451;23;20008;-95
2023/01/24 00:41:05;;;;;;;31.92;12.98;;;;;;;;;;6226837;23;20035;-96
2023/01/24 00:43:31;;;;;;;25.60;12.57;;;;;;;;;;6250691;23;20387;-96
2023/01/24 00:45:57;;;;;;;28.85;11.38;;;;;;;;;;6225867;23;20012;-95
2023/01/24 00:48:24;;;;;;;32.22;12.70;;;;;;;;;;6225263;23;20455;-94
2023/01/24 00:50:50;;;;;;;29.25;12.50;;;;;;;;;;6225612;23;20004;-95
2023/01/24 00:53:17;;;;;;;28.25;11.52;;;;;;;;;;6251467;23;20008;-94
2023/01/24 00:55:44;;;;;;;35.00;13.07;;;;;;;;;;6226426;23;20015;-95
2023/01/24 00:58:10;;;;;;;34.58;12.80;;;;;;;;;;6226559;23;20008;-95
2023/01/24 01:00:38;;;;;;;33.05;13.60;;;;;;;;;;6226363;23;20004;-94
2023/01/24 01:03:05;;;;;;;29.65;11.85;;;;;;;;;;6251418;23;20000;-96
2023/01/24 01:05:32;;;;;;;29.02;12.52;;;;;;;;;;6251197;23;20082;-95
2023/01/24 01:07:58;;;;;;;29.48;13.73;;;;;;;;;;6249545;23;20008;-95
2023/01/24 01:10:24;;;;;;;30.95;12.75;;;;;;;;;;6250336;23;20000;-94
2023/01/24 01:12:50;;;;;;;31.40;13.63;;;;;;;;;;6226074;23;20004;-95
2023/01/24 01:15:16;;;;;;;35.97;14.10;;;;;;;;;;6224358;23;20004;-95
2023/01/24 01:17:42;;;;;;;29.88;12.30;;;;;;;;;;6224122;23;20011;-95
2023/01/24 01:20:08;;;;;;;33.85;14.23;;;;;;;;;;6224497;23;20012;-95
2023/01/24 01:22:34;;;;;;;30.15;12.93;;;;;;;;;;6226126;22;20096;-96
2023/01/24 01:25:01;;;;;;;33.47;13.05;;;;;;;;;;6249791;23;20396;-95
2023/01/24 01:27:27;;;;;;;34.67;15.35;;;;;;;;;;6226149;23;20012;-95
2023/01/24 01:29:53;;;;;;;38.05;15.45;;;;;;;;;;6224779;23;20432;-94
2023/01/24 01:32:19;;;;;;;34.28;14.55;;;;;;;;;;6224791;23;20007;-95
2023/01/24 01:34:45;;;;;;;35.92;13.25;;;;;;;;;;6225643;23;20038;-95
2023/01/24 01:37:11;;;;;;;34.83;15.32;;;;;;;;;;6226715;23;20012;-95
2023/01/24 01:39:38;;;;;;;39.20;15.27;;;;;;;;;;6251851;23;20432;-95
2023/01/24 01:42:04;;;;;;;35.78;14.38;;;;;;;;;;6251397;23;20402;-95
2023/01/24 01:44:47;;;;;;;39.88;15.60;;;;;;;;;;6251590;23;20010;-95
2023/01/24 01:47:18;;;;;;;31.63;13.82;;;;;;;;;;6252825;23;20448;-95
2023/01/24 01:49:47;;;;;;;35.40;14.27;;;;;;;;;;6253920;23;20001;-96
2023/01/24 01:52:13;;;;;;;33.00;13.55;;;;;;;;;;6255663;23;20150;-94
2023/01/24 01:54:40;;;;;;;36.20;14.02;;;;;;;;;;6233831;23;20004;-96
2023/01/24 01:57:09;;;;;;;34.03;15.43;;;;;;;;;;6259986;23;20004;-95
2023/01/24 01:59:37;;;;;;;39.05;16.48;;;;;;;;;;6238409;23;20015;-94
2023/01/24 02:02:04;;;;;;;40.17;15.82;;;;;;;;;;6260731;23;20448;-95
2023/01/24 02:04:37;;;;;;;36.53;15.35;;;;;;;;;;6235337;23;20499;-93
2023/01/24 02:07:11;;;;;;;35.35;14.93;;;;;;;;;;6254771;23;20031;-95
2023/01/24 02:09:40;;;;;;;34.00;14.50;;;;;;;;;;6252597;23;20060;-95
2023/01/24 02:12:08;;;;;;;43.90;15.50;;;;;;;;;;6250352;23;20008;-95
2023/01/24 02:17:21;;;;;;;34.60;15.25;;;;;;;;;;6253428;23;20391;-95
2023/01/24 02:20:03;;;;;;;32.00;14.18;;;;;;;;;;6226222;23;20018;-96
2023/01/24 02:22:42;;;;;;;33.40;14.77;;;;;;;;;;6250258;23;20004;-95
2023/01/24 02:25:11;;;;;;;30.67;14.10;;;;;;;;;;6251240;23;20048;-95
2023/01/24 02:27:37;;;;;;;35.17;13.88;;;;;;;;;;6252565;23;20012;-95
2023/01/24 02:30:07;;;;;;;36.17;14.82;;;;;;;;;;6251791;23;20423;-95
2023/01/24 02:32:35;;;;;;;31.50;14.50;;;;;;;;;;6226831;23;20004;-96
2023/01/24 02:35:01;;;;;;;41.58;15.93;;;;;;;;;;6227831;23;20008;-96
2023/01/24 02:37:28;;;;;;;38.17;16.15;;;;;;;;;;6228254;23;20020;-95
2023/01/24 02:39:58;;;;;;;40.83;15.52;;;;;;;;;;6253017;23;20091;-95
2023/01/24 02:42:31;;;;;;;38.00;17.90;;;;;;;;;;6252650;23;20004;-96
2023/01/24 02:45:04;;;;;;;41.97;16.23;;;;;;;;;;6227410;23;20083;-96
2023/01/24 02:47:33;;;;;;;35.78;15.30;;;;;;;;;;6251704;23;20004;-96
2023/01/24 02:50:00;;;;;;;44.13;16.92;;;;;;;;;;6251179;23;20075;-95
2023/01/24 02:55:11;;;;;;;32.75;15.27;;;;;;;;;;6252931;23;20014;-95
2023/01/24 03:00:22;;;;;;;42.60;16.20;;;;;;;;;;6252377;23;20039;-94
2023/01/24 03:02:48;;;;;;;39.08;16.15;;;;;;;;;;6252069;23;20031;-95
2023/01/24 03:05:14;;;;;;;37.15;14.75;;;;;;;;;;6228371;23;20306;-95
2023/01/24 03:07:44;;;;;;;40.70;14.88;;;;;;;;;;6226091;23;20008;-96
2023/01/24 03:10:14;;;;;;;34.70;14.98;;;;;;;;;;6227348;23;20061;-94
2023/01/24 03:34:50;;;;;;;33.45;14.85;;;;;;;;;;6263006;22;20083;-95
2023/01/24 03:39:53;;;;;;;33.05;13.38;;;;;;;;;;6235206;22;20012;-96
2023/01/24 03:40:04;;;;;;;35.45;15.10;;;;;;;;;;6284648;22;20074;-95
2023/01/24 03:42:30;;;;;;;39.30;15.48;;;;;;;;;;6258687;22;20087;-94
2023/01/24 03:44:56;;;;;;;36.72;14.23;;;;;;;;;;6232496;22;20020;-95
2023/01/24 03:47:22;;;;;;;37.63;15.13;;;;;;;;;;6259959;22;20455;-95
2023/01/24 03:52:33;;;;;;;37.25;15.70;;;;;;;;;;6264629;22;20019;-95
2023/01/24 03:55:00;;;;;;;33.05;14.40;;;;;;;;;;6235357;22;20008;-95
2023/01/24 03:57:27;;;;;;;37.15;14.32;;;;;;;;;;6285697;22;20317;-95
2023/01/24 03:59:53;;;;;;;42.65;14.98;;;;;;;;;;6258783;22;20034;-95
2023/01/24 04:02:20;;;;;;;44.58;16.02;;;;;;;;;;6233826;22;20336;-95
2023/01/24 04:07:30;;;;;;;36.67;15.35;;;;;;;;;;6264023;22;20038;-95
2023/01/24 04:09:58;;;;;;;32.35;14.85;;;;;;;;;;6233794;22;20340;-94
2023/01/24 04:12:24;;;;;;;38.15;14.73;;;;;;;;;;6259962;22;19999;-95
2023/01/24 04:14:50;;;;;;;32.28;13.43;;;;;;;;;;6259168;22;20008;-95
2023/01/24 04:17:16;;;;;;;35.10;14.23;;;;;;;;;;6234980;22;20382;-95
2023/01/24 04:19:43;;;;;;;30.27;13.25;;;;;;;;;;6234605;22;20011;-94
2023/01/24 04:22:09;;;;;;;29.35;13.20;;;;;;;;;;6235791;22;20011;-95
2023/01/24 04:24:47;;;;;;;34.15;15.00;;;;;;;;;;6231855;22;20024;-94
2023/01/24 04:27:13;;;;;;;32.10;13.23;;;;;;;;;;6230939;23;20031;-95
2023/01/24 04:29:39;;;;;;;35.92;13.90;;;;;;;;;;6231447;23;20004;-94
2023/01/24 04:32:06;;;;;;;29.00;12.45;;;;;;;;;;6255851;23;20001;-95
2023/01/24 04:34:32;;;;;;;34.33;13.88;;;;;;;;;;6252594;23;20056;-95
2023/01/24 04:36:58;;;;;;;30.23;13.68;;;;;;;;;;6227071;23;20047;-94
2023/01/24 04:39:24;;;;;;;34.20;13.63;;;;;;;;;;6228015;23;20012;-96
2023/01/24 04:41:50;;;;;;;33.53;13.18;;;;;;;;;;6228030;23;20456;-95
2023/01/24 04:44:16;;;;;;;26.20;12.68;;;;;;;;;;6228257;23;20012;-95
2023/01/24 04:46:42;;;;;;;27.65;12.75;;;;;;;;;;6227772;23;20015;-95
2023/01/24 04:49:09;;;;;;;24.15;11.80;;;;;;;;;;6228834;23;20004;-95
2023/01/24 04:51:35;;;;;;;24.67;11.73;;;;;;;;;;6254060;23;20059;-95
2023/01/24 04:54:01;;;;;;;23.70;10.93;;;;;;;;;;6228896;23;20007;-95
2023/01/24 04:56:27;;;;;;;28.90;12.93;;;;;;;;;;6229997;23;20056;-94
2023/01/24 04:58:53;;;;;;;27.42;12.55;;;;;;;;;;6229913;23;20008;-95
2023/01/24 05:01:19;;;;;;;25.45;11.98;;;;;;;;;;6231490;23;20012;-95
2023/01/24 05:03:45;;;;;;;26.10;12.05;;;;;;;;;;6231866;23;20012;-92
2023/01/24 05:06:11;;;;;;;25.63;12.07;;;;;;;;;;6228985;23;20008;-94
2023/01/24 05:08:37;;;;;;;25.73;11.48;;;;;;;;;;6229171;23;20015;-95
2023/01/24 05:11:05;;;;;;;25.77;11.63;;;;;;;;;;6231797;23;20036;-94
2023/01/24 05:13:31;;;;;;;25.88;11.45;;;;;;;;;;6234896;23;20068;-95
2023/01/24 05:15:57;;;;;;;23.17;10.77;;;;;;;;;;6256001;23;20004;-95
2023/01/24 05:18:23;;;;;;;22.70;10.35;;;;;;;;;;6255198;23;20091;-94
2023/01/24 05:20:49;;;;;;;21.63;9.95;;;;;;;;;;6228707;23;20012;-95
2023/01/24 05:23:15;;;;;;;23.05;11.02;;;;;;;;;;6230604;23;20016;-95
2023/01/24 05:25:44;;;;;;;24.95;11.57;;;;;;;;;;6204245;22;20023;-95
2023/01/24 05:28:13;;;;;;;27.27;11.98;;;;;;;;;;6226527;23;20004;-95
2023/01/24 05:30:39;;;;;;;25.65;11.43;;;;;;;;;;6202300;23;20012;-95
2023/01/24 05:33:05;;;;;;;28.58;11.90;;;;;;;;;;6200562;23;20063;-95
2023/01/24 05:35:31;;;;;;;25.02;11.70;;;;;;;;;;6198934;23;20004;-95
2023/01/24 05:37:57;;;;;;;24.70;11.40;;;;;;;;;;6199593;23;20012;-94
2023/01/24 05:40:23;;;;;;;24.52;11.15;;;;;;;;;;6205427;23;19997;-96
2023/01/24 05:42:49;;;;;;;26.65;11.63;;;;;;;;;;6199925;23;20027;-95
2023/01/24 05:45:15;;;;;;;29.70;12.75;;;;;;;;;;6199426;23;20012;-95
2023/01/24 05:47:41;;;;;;;25.77;11.57;;;;;;;;;;6199763;23;20013;-95
2023/01/24 05:50:08;;;;;;;27.65;11.57;;;;;;;;;;6199407;23;20009;-95
2023/01/24 05:52:34;;;;;;;21.73;11.18;;;;;;;;;;6199367;23;20004;-95
2023/01/24 05:55:00;;;;;;;22.08;10.20;;;;;;;;;;6198987;23;20429;-95
2023/01/24 05:57:26;;;;;;;29.83;12.18;;;;;;;;;;6198603;23;20067;-95
2023/01/24 05:59:52;;;;;;;26.95;12.07;;;;;;;;;;6198760;23;20087;-93
2023/01/24 06:02:18;;;;;;;26.58;11.50;;;;;;;;;;6198459;23;20043;-96
2023/01/24 06:04:44;;;;;;;26.00;11.60;;;;;;;;;;6198683;23;20009;-95
2023/01/24 06:07:10;;;;;;;25.45;11.57;;;;;;;;;;6200466;23;20087;-95
2023/01/24 06:09:37;;;;;;;25.48;11.52;;;;;;;;;;6199310;23;20012;-95
2023/01/24 06:12:03;;;;;;;25.73;10.82;;;;;;;;;;6223838;23;20027;-95
2023/01/24 06:14:29;;;;;;;27.00;11.88;;;;;;;;;;6224060;23;20008;-95
2023/01/24 06:16:55;;;;;;;27.98;12.07;;;;;;;;;;6198403;23;20036;-94
2023/01/24 06:19:21;;;;;;;24.42;10.88;;;;;;;;;;6198620;23;20020;-95
2023/01/24 06:22:10;;;;;;;28.98;12.90;;;;;;;;;;6199928;23;20013;-95
2023/01/24 06:24:36;;;;;;;30.63;11.68;;;;;;;;;;6239485;22;20076;-95
2023/01/24 06:27:02;;;;;;;30.48;12.70;;;;;;;;;;6255385;23;20008;-94
2023/01/24 06:29:28;;;;;;;25.42;12.38;;;;;;;;;;6254254;23;20000;-94
2023/01/24 06:32:06;;;;;;;26.45;12.15;;;;;;;;;;6255190;23;20026;-95
2023/01/24 06:34:43;;;;;;;29.98;13.30;;;;;;;;;;6254720;23;20067;-94
2023/01/24 06:37:21;;;;;;;31.88;12.00;;;;;;;;;;6254544;23;20058;-95
2023/01/24 06:39:51;;;;;;;32.35;13.18;;;;;;;;;;6254055;23;20458;-95
2023/01/24 06:42:22;;;;;;;23.35;10.85;;;;;;;;;;6255000;23;20063;-95
2023/01/24 06:44:48;;;;;;;28.48;12.55;;;;;;;;;;6254152;23;20050;-95
2023/01/24 06:47:15;;;;;;;34.35;13.85;;;;;;;;;;6254145;23;20091;-95
2023/01/24 06:49:45;;;;;;;34.47;12.75;;;;;;;;;;6254019;23;20007;-95
2023/01/24 06:52:13;;;;;;;30.08;12.85;;;;;;;;;;6254074;23;20004;-94
2023/01/24 06:54:41;;;;;;;32.35;13.25;;;;;;;;;;6254717;23;20000;-95
2023/01/24 06:57:08;;;;;;;30.80;13.35;;;;;;;;;;6229539;23;20069;-95
2023/01/24 06:59:34;;;;;;;34.15;13.50;;;;;;;;;;6228386;23;20068;-94
2023/01/24 07:02:00;;;;;;;30.90;13.77;;;;;;;;;;6228289;23;20012;-95
2023/01/24 07:04:26;;;;;;;32.03;13.35;;;;;;;;;;6227252;23;20012;-95
2023/01/24 07:06:52;;;;;;;30.80;13.48;;;;;;;;;;6253620;23;20433;-95
2023/01/24 07:09:21;;;;;;;30.15;12.55;;;;;;;;;;6227584;23;20037;-95
2023/01/24 07:11:52;;;;;;;35.35;14.27;;;;;;;;;;6230425;23;20008;-94
2023/01/24 07:14:18;;;;;;;31.30;12.65;;;;;;;;;;6255633;23;20004;-94
2023/01/24 07:16:47;;;;;;;26.25;11.38;;;;;;;;;;6230708;23;20019;-95
2023/01/24 07:19:17;;;;;;;30.33;10.75;;;;;;;;;;6254506;23;20008;-95
2023/01/24 07:21:43;;;;;;;26.77;11.30;;;;;;;;;;6230169;23;20016;-95
2023/01/24 07:24:14;;;;;;;25.17;11.68;;;;;;;;;;6256574;22;20365;-95
2023/01/24 07:26:40;;;;;;;25.67;11.80;;;;;;;;;;6255375;23;20016;-94
2023/01/24 07:29:06;;;;;;;24.58;11.13;;;;;;;;;;6230133;23;20058;-94
2023/01/24 07:31:33;;;;;;;29.15;12.55;;;;;;;;;;6230224;23;20008;-94
2023/01/24 07:33:59;;;;;;;30.02;11.20;;;;;;;;;;6231089;23;20088;-94
2023/01/24 07:36:25;;;;;;;23.90;10.80;;;;;;;;;;6257925;23;20026;-94
2023/01/24 07:38:54;;;;;;;27.27;12.93;;;;;;;;;;6232031;23;20062;-95
2023/01/24 07:41:21;;;;;;;27.88;11.15;;;;;;;;;;6256926;23;20028;-95
2023/01/24 07:43:47;;;;;;;25.00;10.73;;;;;;;;;;6231728;23;20050;-96
2023/01/24 07:46:13;;;;;;;24.35;10.40;;;;;;;;;;6232439;23;20095;-95
2023/01/24 07:48:39;;;;;;;22.67;9.77;;;;;;;;;;6232142;23;20046;-96
2023/01/24 07:51:05;;;;;;;24.38;10.45;;;;;;;;;;6231907;23;20008;-95
2023/01/24 07:53:32;;;;;;;18.48;9.50;;;;;;;;;;6232247;23;20008;-96
2023/01/24 07:56:01;;;;;;;23.92;10.13;;;;;;;;;;6229780;23;20008;-95
2023/01/24 07:58:28;;;;;;;18.67;8.98;;;;;;;;;;6230096;23;20000;-95
2023/01/24 08:00:54;;;;;;;20.77;9.35;;;;;;;;;;6256250;23;20000;-95
2023/01/24 08:03:20;;;;;;;21.75;8.68;;;;;;;;;;6256093;23;20352;-95
2023/01/24 08:05:46;;;;;;;19.58;9.27;;;;;;;;;;6229782;23;20101;-95
2023/01/24 08:08:13;;;;;;;18.58;8.52;;;;;;;;;;6255839;23;20000;-95
2023/01/24 08:10:39;;;;;;;20.15;9.15;;;;;;;;;;6256496;23;20000;-96
2023/01/24 08:13:05;;;;;;;20.38;9.10;;;;;;;;;;6256393;23;20484;-96
2023/01/24 08:15:31;;;;;;;22.10;9.55;;;;;;;;;;6230900;23;20008;-95
2023/01/24 08:17:57;;;;;;;18.00;7.78;;;;;;;;;;6231759;23;20014;-95
2023/01/24 08:20:23;;;;;;;19.42;8.57;;;;;;;;;;6231961;23;20142;-95
2023/01/24 08:22:54;;;;;;;21.35;9.00;;;;;;;;;;6259085;23;20035;-95
2023/01/24 08:25:20;;;;;;;21.48;9.82;;;;;;;;;;6260448;22;20020;-95
2023/01/24 08:27:46;;;;;;;18.45;8.25;;;;;;;;;;6234509;23;20109;-95
2023/01/24 08:30:13;;;;;;;25.00;9.52;;;;;;;;;;6237085;23;20001;-96
2023/01/24 08:32:39;;;;;;;18.85;8.82;;;;;;;;;;6237880;23;20000;-96
2023/01/24 08:35:05;;;;;;;19.42;7.93;;;;;;;;;;6268374;23;19988;-95
2023/01/24 08:37:31;;;;;;;17.13;8.90;;;;;;;;;;6242354;23;20012;-94
2023/01/24 08:39:57;;;;;;;17.73;8.18;;;;;;;;;;6239693;23;20012;-94
2023/01/24 08:42:24;;;;;;;15.57;6.90;;;;;;;;;;6262584;23;20425;-94
2023/01/24 08:44:51;;;;;;;16.15;7.43;;;;;;;;;;6257757;23;20077;-95
2023/01/24 08:47:17;;;;;;;17.73;8.77;;;;;;;;;;6257242;23;20012;-95
2023/01/24 08:49:43;;;;;;;18.00;8.10;;;;;;;;;;6255581;23;20040;-95
2023/01/24 08:52:09;;;;;;;17.55;7.88;;;;;;;;;;6256023;23;20389;-95
2023/01/24 08:54:35;;;;;;;17.25;7.70;;;;;;;;;;6231065;23;20030;-95
2023/01/24 08:57:06;;;;;;;21.60;9.18;;;;;;;;;;6229999;23;20009;-96
2023/01/24 08:59:35;;;;;;;21.10;8.20;;;;;;;;;;6230422;23;20019;-96
2023/01/24 09:02:01;;;;;;;21.17;8.68;;;;;;;;;;6254599;23;20014;-95
2023/01/24 09:04:27;;;;;;;25.50;7.78;;;;;;;;;;6255136;23;20087;-95
2023/01/24 09:06:53;;;;;;;18.60;8.55;;;;;;;;;;6254111;23;20047;-96
2023/01/24 09:09:20;;;;;;;21.30;9.32;;;;;;;;;;6255249;23;20001;-94
2023/01/24 09:11:53;;;;;;;19.52;8.30;;;;;;;;;;6230434;23;20012;-95
2023/01/24 09:14:19;;;;;;;20.27;8.88;;;;;;;;;;6255228;23;20009;-95
2023/01/24 09:16:45;;;;;;;17.50;8.32;;;;;;;;;;6230022;23;20054;-95
2023/01/24 09:19:12;;;;;;;19.75;8.90;;;;;;;;;;6228669;23;20020;-96
2023/01/24 09:21:38;;;;;;;22.00;9.23;;;;;;;;;;6254861;23;20015;-95
2023/01/24 09:24:04;;;;;;;17.58;8.18;;;;;;;;;;6256845;22;20000;-96
2023/01/24 09:26:30;;;;;;;18.38;8.38;;;;;;;;;;6233670;22;20090;-95
2023/01/24 09:28:56;;;;;;;15.93;7.65;;;;;;;;;;6233530;22;20098;-96
2023/01/24 09:31:22;;;;;;;19.98;7.65;;;;;;;;;;6233498;22;20086;-96
2023/01/24 09:33:49;;;;;;;14.65;6.47;;;;;;;;;;6234094;22;20008;-95
2023/01/24 09:36:15;;;;;;;15.82;7.38;;;;;;;;;;6234808;22;20091;-95
2023/01/24 09:38:41;;;;;;;16.73;7.75;;;;;;;;;;6233506;22;20023;-94
2023/01/24 09:41:19;;;;;;;16.35;7.82;;;;;;;;;;6234511;22;20032;-95
2023/01/24 09:43:53;;;;;;;16.05;6.30;;;;;;;;;;6259687;22;20424;-96
2023/01/24 09:46:34;;;;;;;17.60;7.90;;;;;;;;;;6259990;22;20038;-96
2023/01/24 09:49:19;;;;;;;17.80;7.60;;;;;;;;;;6259920;22;20038;-95
2023/01/24 09:51:51;;;;;;;18.13;8.05;;;;;;;;;;6262356;22;19999;-95
2023/01/24 09:54:22;;;;;;;16.05;7.75;;;;;;;;;;6259127;22;20003;-96
2023/01/24 09:56:48;;;;;;;16.83;7.18;;;;;;;;;;6259954;22;20498;-95
2023/01/24 09:59:20;;;;;;;16.92;8.07;;;;;;;;;;6234408;22;20317;-95
2023/01/24 10:01:49;;;;;;;14.75;6.75;;;;;;;;;;6259604;22;20471;-96
2023/01/24 10:04:15;;;;;;;16.58;7.38;;;;;;;;;;6259826;22;20004;-96
2023/01/24 10:06:48;;;;;;;18.45;8.02;;;;;;;;;;6259482;22;20062;-95
2023/01/24 10:09:18;;;;;;;16.95;7.32;;;;;;;;;;6260100;22;20004;-95
2023/01/24 10:12:04;;;;;;;14.27;6.82;;;;;;;;;;6259138;22;20004;-95
2023/01/24 10:14:36;;;;;;;14.35;7.20;;;;;;;;;;6258552;22;20003;-95
2023/01/24 10:17:02;;;;;;;17.52;7.55;;;;;;;;;;6259469;22;20090;-96
2023/01/24 10:19:41;;;;;;;14.73;6.97;;;;;;;;;;6259159;22;20003;-95
2023/01/24 10:22:18;;;;;;;18.48;8.23;;;;;;;;;;6259337;22;19996;-95
2023/01/24 10:25:01;;;;;;;14.18;6.93;;;;;;;;;;6255444;22;20344;-95
2023/01/24 10:27:39;;;;;;;14.52;7.00;;;;;;;;;;6254318;23;20047;-94
2023/01/24 10:30:18;;;;;;;15.05;7.18;;;;;;;;;;6255136;23;20005;-95
2023/01/24 10:32:45;;;;;;;15.82;7.47;;;;;;;;;;6254470;23;20012;-96
2023/01/24 10:35:16;;;;;;;21.05;7.70;;;;;;;;;;6253678;23;20008;-95
2023/01/24 10:37:44;;;;;;;20.08;9.15;;;;;;;;;;6254291;23;20022;-94
2023/01/24 10:40:14;;;;;;;18.42;7.40;;;;;;;;;;6253508;23;20004;-95
2023/01/24 10:42:41;;;;;;;13.50;7.43;;;;;;;;;;6253626;23;20087;-95
2023/01/24 10:45:30;;;;;;;17.90;7.85;;;;;;;;;;6229385;23;20019;-96
2023/01/24 10:48:01;;;;;;;15.02;7.15;;;;;;;;;;6255445;23;20008;-95
2023/01/24 10:50:34;;;;;;;19.20;8.30;;;;;;;;;;6255491;23;20022;-95
2023/01/24 10:53:13;;;;;;;16.58;7.28;;;;;;;;;;6230861;23;20004;-95
2023/01/24 10:55:39;;;;;;;19.38;8.40;;;;;;;;;;6255757;23;20049;-96
2023/01/24 10:58:29;;;;;;;20.15;8.18;;;;;;;;;;6230984;23;20019;-95
2023/01/24 11:00:59;;;;;;;21.42;7.63;;;;;;;;;;6244438;23;20008;-95
2023/01/24 11:03:29;;;;;;;16.27;7.63;;;;;;;;;;6231411;23;20012;-95
2023/01/24 11:05:57;;;;;;;21.23;7.68;;;;;;;;;;6256411;23;20460;-95
2023/01/24 11:08:27;;;;;;;15.02;7.10;;;;;;;;;;6256357;23;20093;-95
2023/01/24 11:10:54;;;;;;;16.23;7.50;;;;;;;;;;6230983;23;20011;-95
2023/01/24 11:13:24;;;;;;;20.85;7.88;;;;;;;;;;6256350;23;20022;-96
2023/01/24 11:15:52;;;;;;;17.45;6.68;;;;;;;;;;6256156;23;20421;-95
2023/01/24 11:18:21;;;;;;;18.80;7.72;;;;;;;;;;6257059;23;20008;-95
2023/01/24 11:20:48;;;;;;;17.48;8.07;;;;;;;;;;6257058;23;20463;-96
2023/01/24 11:23:26;;;;;;;17.70;6.40;;;;;;;;;;6257744;23;20004;-94
2023/01/24 11:26:01;;;;;;;18.13;7.15;;;;;;;;;;6234588;22;20024;-95
